Terminal Aerodrome Forecast
Issued by NWS Wilmington, OH

Current Version | Previous Version | Graphics & Text | Print | Product List | Glossary On
Versions: 1 2 3 4 5 6 7 8 9 10 11 12 13 14 15 16 17 18 19 20
000
FTUS41 KILN 251736
TAFILN
TAF
KILN 251736Z 2518/2618 19010KT P6SM SCT050 SCT100 BKN250
     FM260100 19006KT P6SM FEW100 BKN250
     FM260500 19006KT P6SM VCSH BKN040 BKN080
     FM261000 20006KT P6SM SCT040 BKN250
     FM261500 22010KT P6SM SCT040=

USA.gov is the U.S. government's official web portal to all federal, state and local government web resources and services.